Time;durP1;ratioP1;P1;durP2;ratioP2;P2;SDS_P1;SDS_P2;PMS_P1;PMS_P2;Temp;Humidity;BMP_temperature;BMP_pressure;BME280_temperature;BME280_humidity;BME280_pressure;Samples;Min_cycle;Max_cycle;Signal;HPM_P1;HPM_P2
2023/06/09 00:00:18;;;;;;;9.73;8.82;;;;;;;;;;508520;28;1463;-75
2023/06/09 00:00:33;;;;;;;8.73;7.93;;;;;;;;;;508962;28;1374;-76
2023/06/09 00:00:49;;;;;;;8.02;7.28;;;;;;;;;;507459;28;1485;-75
2023/06/09 00:01:09;;;;;;;7.80;7.00;;;;;;;;;;507896;28;1278;-75
2023/06/09 00:01:30;;;;;;;7.65;6.90;;;;;;;;;;508360;28;1415;-75
2023/06/09 00:02:07;;;;;;;8.82;7.20;;;;;;;;;;508554;28;1441;-76
2023/06/09 00:02:23;;;;;;;7.65;6.95;;;;;;;;;;505612;28;1245;-75
2023/06/09 00:02:39;;;;;;;7.70;6.90;;;;;;;;;;506415;28;1403;-76
2023/06/09 00:02:55;;;;;;;8.63;7.00;;;;;;;;;;505968;28;1467;-76
2023/06/09 00:03:11;;;;;;;8.88;6.97;;;;;;;;;;504195;28;1119;-75
2023/06/09 00:03:27;;;;;;;7.97;7.05;;;;;;;;;;505541;28;1329;-75
2023/06/09 00:03:47;;;;;;;7.95;7.15;;;;;;;;;;503773;28;1468;-75
2023/06/09 00:04:03;;;;;;;7.78;7.00;;;;;;;;;;505887;28;1364;-76
2023/06/09 00:04:23;;;;;;;8.05;6.90;;;;;;;;;;506701;28;1509;-76
2023/06/09 00:04:39;;;;;;;7.97;7.15;;;;;;;;;;509153;28;1067;-75
2023/06/09 00:04:56;;;;;;;9.02;7.30;;;;;;;;;;509485;28;1346;-75
2023/06/09 00:05:12;;;;;;;8.18;7.20;;;;;;;;;;510217;28;1545;-75
2023/06/09 00:05:32;;;;;;;8.32;7.53;;;;;;;;;;508567;28;1479;-76
2023/06/09 00:05:48;;;;;;;8.60;7.65;;;;;;;;;;508934;28;1116;-75
2023/06/09 00:06:04;;;;;;;8.10;7.30;;;;;;;;;;508037;28;1300;-75
2023/06/09 00:06:22;;;;;;;8.32;7.50;;;;;;;;;;506700;28;1359;-75
2023/06/09 00:06:39;;;;;;;8.43;7.55;;;;;;;;;;508390;28;1450;-75
2023/06/09 00:06:58;;;;;;;9.43;7.60;;;;;;;;;;507037;28;1378;-75
2023/06/09 00:07:15;;;;;;;9.93;7.80;;;;;;;;;;509360;28;1374;-75
2023/06/09 00:07:33;;;;;;;8.23;7.47;;;;;;;;;;508961;28;1333;-75
2023/06/09 00:07:50;;;;;;;8.32;7.53;;;;;;;;;;510446;28;1397;-74
2023/06/09 00:08:08;;;;;;;8.60;7.70;;;;;;;;;;512228;28;1356;-73
2023/06/09 00:08:25;;;;;;;9.27;7.80;;;;;;;;;;508473;28;1401;-75
2023/06/09 00:08:41;;;;;;;8.25;7.45;;;;;;;;;;508469;28;1287;-75
2023/06/09 00:08:57;;;;;;;8.32;7.53;;;;;;;;;;506668;28;1477;-76
2023/06/09 00:09:13;;;;;;;8.45;7.63;;;;;;;;;;508251;28;1201;-76
2023/06/09 00:09:29;;;;;;;8.48;7.68;;;;;;;;;;507876;28;1734;-75
2023/06/09 00:09:45;;;;;;;8.55;7.80;;;;;;;;;;507842;28;1083;-75
2023/06/09 00:10:01;;;;;;;8.52;7.72;;;;;;;;;;508610;28;1134;-75
2023/06/09 00:10:17;;;;;;;9.13;7.82;;;;;;;;;;507488;28;1338;-74
2023/06/09 00:10:32;;;;;;;8.57;7.50;;;;;;;;;;509156;28;1057;-73
2023/06/09 00:10:48;;;;;;;8.45;7.40;;;;;;;;;;510050;28;1345;-73
2023/06/09 00:11:04;;;;;;;8.37;7.50;;;;;;;;;;511606;28;973;-73
2023/06/09 00:11:21;;;;;;;8.30;7.50;;;;;;;;;;508075;28;1457;-75
2023/06/09 00:11:57;;;;;;;8.00;7.25;;;;;;;;;;506957;28;1130;-75
2023/06/09 00:12:16;;;;;;;7.78;7.00;;;;;;;;;;501027;29;1301;-75
2023/06/09 00:12:32;;;;;;;7.75;7.03;;;;;;;;;;505227;28;1964;-76
2023/06/09 00:12:48;;;;;;;8.55;7.35;;;;;;;;;;509433;28;1423;-76
2023/06/09 00:13:04;;;;;;;7.95;7.15;;;;;;;;;;506904;28;1253;-76
2023/06/09 00:13:40;;;;;;;8.20;7.50;;;;;;;;;;506523;28;1268;-75
2023/06/09 00:13:56;;;;;;;8.77;7.88;;;;;;;;;;503772;28;1376;-76
2023/06/09 00:14:12;;;;;;;9.07;7.80;;;;;;;;;;505969;28;1316;-76
2023/06/09 00:14:28;;;;;;;8.55;7.65;;;;;;;;;;507849;28;1525;-76
2023/06/09 00:14:43;;;;;;;8.07;7.30;;;;;;;;;;508967;28;1347;-75
2023/06/09 00:14:59;;;;;;;7.70;7.00;;;;;;;;;;509291;28;1145;-76
2023/06/09 00:15:17;;;;;;;7.65;7.00;;;;;;;;;;506240;28;1324;-76
2023/06/09 00:15:36;;;;;;;7.90;7.20;;;;;;;;;;505711;28;1493;-75
2023/06/09 00:15:51;;;;;;;8.13;7.32;;;;;;;;;;507293;28;1163;-75
2023/06/09 00:16:09;;;;;;;8.27;7.50;;;;;;;;;;509102;28;1015;-75
2023/06/09 00:16:28;;;;;;;8.30;7.50;;;;;;;;;;510221;28;1230;-76
2023/06/09 00:16:45;;;;;;;7.85;7.15;;;;;;;;;;509502;28;1480;-76
2023/06/09 00:17:01;;;;;;;8.27;7.47;;;;;;;;;;507448;28;1400;-75
2023/06/09 00:17:17;;;;;;;8.73;7.85;;;;;;;;;;507898;28;1355;-76
2023/06/09 00:17:33;;;;;;;8.98;7.57;;;;;;;;;;505927;28;1466;-76
2023/06/09 00:17:48;;;;;;;8.43;7.60;;;;;;;;;;507169;28;1205;-76
2023/06/09 00:18:04;;;;;;;8.63;7.90;;;;;;;;;;504378;28;1384;-76
2023/06/09 00:18:24;;;;;;;8.45;7.63;;;;;;;;;;506933;28;1348;-75
2023/06/09 00:18:40;;;;;;;8.45;7.50;;;;;;;;;;506329;28;1412;-73
2023/06/09 00:18:57;;;;;;;8.50;7.80;;;;;;;;;;507297;28;1430;-75
2023/06/09 00:19:15;;;;;;;8.35;7.65;;;;;;;;;;506960;28;1292;-76
2023/06/09 00:19:32;;;;;;;8.05;7.25;;;;;;;;;;509196;28;1292;-76
2023/06/09 00:19:52;;;;;;;7.53;6.93;;;;;;;;;;510873;28;1457;-75
2023/06/09 00:20:12;;;;;;;7.95;7.25;;;;;;;;;;511349;28;1140;-76
2023/06/09 00:20:33;;;;;;;8.60;7.80;;;;;;;;;;510162;28;1449;-76
2023/06/09 00:20:50;;;;;;;8.45;7.75;;;;;;;;;;511499;28;1103;-75
2023/06/09 00:21:09;;;;;;;8.32;7.53;;;;;;;;;;511508;28;1476;-75
2023/06/09 00:21:25;;;;;;;8.10;7.30;;;;;;;;;;510813;28;1474;-75
2023/06/09 00:22:01;;;;;;;8.30;7.50;;;;;;;;;;509113;28;1371;-76
2023/06/09 00:22:17;;;;;;;7.90;7.20;;;;;;;;;;509822;28;1383;-75
2023/06/09 00:22:43;;;;;;;7.85;7.15;;;;;;;;;;507143;28;1305;-75
2023/06/09 00:23:01;;;;;;;8.07;7.30;;;;;;;;;;508534;28;1471;-75
2023/06/09 00:23:17;;;;;;;8.18;7.40;;;;;;;;;;508341;28;1421;-75
2023/06/09 00:23:33;;;;;;;8.03;7.33;;;;;;;;;;509931;28;1283;-76
2023/06/09 00:23:49;;;;;;;8.10;7.30;;;;;;;;;;510674;28;935;-75
2023/06/09 00:24:05;;;;;;;8.10;7.30;;;;;;;;;;509550;28;1360;-75
2023/06/09 00:24:45;;;;;;;7.85;7.15;;;;;;;;;;511411;28;1414;-75
2023/06/09 00:25:04;;;;;;;8.20;7.50;;;;;;;;;;505534;28;1332;-75
2023/06/09 00:25:21;;;;;;;7.78;7.00;;;;;;;;;;510979;28;1434;-76
2023/06/09 00:25:36;;;;;;;8.25;7.45;;;;;;;;;;508065;28;1436;-76
2023/06/09 00:25:52;;;;;;;8.53;7.63;;;;;;;;;;508153;28;1440;-76
2023/06/09 00:26:07;;;;;;;8.38;7.57;;;;;;;;;;508428;28;1144;-76
2023/06/09 00:26:23;;;;;;;8.43;7.68;;;;;;;;;;509501;28;1312;-76
2023/06/09 00:26:39;;;;;;;8.32;7.53;;;;;;;;;;507916;28;1248;-76
2023/06/09 00:26:55;;;;;;;7.90;7.20;;;;;;;;;;509232;28;1414;-77
2023/06/09 00:27:11;;;;;;;7.45;6.85;;;;;;;;;;511928;28;1322;-76
2023/06/09 00:27:27;;;;;;;7.40;6.70;;;;;;;;;;512834;28;955;-76
2023/06/09 00:27:45;;;;;;;7.90;7.07;;;;;;;;;;507611;28;1457;-76
2023/06/09 00:28:03;;;;;;;8.55;7.20;;;;;;;;;;506166;28;1371;-76
2023/06/09 00:28:19;;;;;;;7.97;7.18;;;;;;;;;;506647;28;1502;-76
2023/06/09 00:28:37;;;;;;;7.88;7.13;;;;;;;;;;509813;28;1295;-76
2023/06/09 00:28:57;;;;;;;7.88;7.13;;;;;;;;;;508780;28;1319;-76
2023/06/09 00:29:15;;;;;;;9.15;7.20;;;;;;;;;;509252;28;1297;-77
2023/06/09 00:29:30;;;;;;;7.90;7.10;;;;;;;;;;510071;28;1046;-76
2023/06/09 00:29:49;;;;;;;8.00;7.20;;;;;;;;;;509657;28;1185;-76
2023/06/09 00:30:07;;;;;;;8.20;7.40;;;;;;;;;;509686;28;1443;-76
2023/06/09 00:30:22;;;;;;;8.40;7.63;;;;;;;;;;505186;28;1431;-76
2023/06/09 00:30:38;;;;;;;8.50;7.70;;;;;;;;;;506000;28;1330;-77
2023/06/09 00:30:54;;;;;;;8.70;7.80;;;;;;;;;;508031;28;1265;-76
2023/06/09 00:31:10;;;;;;;8.30;7.50;;;;;;;;;;507618;28;957;-76
2023/06/09 00:31:28;;;;;;;8.20;7.50;;;;;;;;;;507756;28;1429;-76
2023/06/09 00:31:44;;;;;;;8.50;7.70;;;;;;;;;;508080;28;1552;-76
2023/06/09 00:32:04;;;;;;;8.25;7.45;;;;;;;;;;508653;28;1338;-76
2023/06/09 00:32:20;;;;;;;8.00;7.30;;;;;;;;;;509920;28;1299;-76
2023/06/09 00:32:36;;;;;;;7.90;7.20;;;;;;;;;;510366;28;994;-76
2023/06/09 00:32:54;;;;;;;8.13;7.35;;;;;;;;;;509608;28;992;-76
2023/06/09 00:33:10;;;;;;;9.50;7.90;;;;;;;;;;509127;28;1390;-77
2023/06/09 00:33:26;;;;;;;9.05;7.72;;;;;;;;;;508016;28;1369;-75
2023/06/09 00:33:41;;;;;;;8.15;7.43;;;;;;;;;;510404;28;1386;-76
2023/06/09 00:33:57;;;;;;;8.30;7.50;;;;;;;;;;510385;28;1235;-76
2023/06/09 00:34:15;;;;;;;8.30;7.50;;;;;;;;;;510349;28;1126;-77
2023/06/09 00:34:31;;;;;;;8.15;7.45;;;;;;;;;;509853;28;1033;-76
2023/06/09 00:34:46;;;;;;;8.23;7.53;;;;;;;;;;509369;28;1514;-76
2023/06/09 00:35:03;;;;;;;8.25;7.55;;;;;;;;;;506720;28;1418;-77
2023/06/09 00:35:22;;;;;;;8.38;7.57;;;;;;;;;;507101;28;1272;-76
2023/06/09 00:35:37;;;;;;;8.30;7.55;;;;;;;;;;510087;28;1192;-76
2023/06/09 00:35:56;;;;;;;8.15;7.45;;;;;;;;;;508835;28;1396;-75
2023/06/09 00:36:12;;;;;;;8.10;7.30;;;;;;;;;;506511;28;1329;-76
2023/06/09 00:36:30;;;;;;;7.95;7.15;;;;;;;;;;506072;28;1138;-76
2023/06/09 00:36:52;;;;;;;8.38;7.57;;;;;;;;;;507366;28;1252;-76
2023/06/09 00:37:14;;;;;;;8.23;7.43;;;;;;;;;;509688;28;967;-76
2023/06/09 00:37:32;;;;;;;7.97;7.20;;;;;;;;;;510419;28;984;-76
2023/06/09 00:37:49;;;;;;;8.40;7.60;;;;;;;;;;510921;28;1149;-76
2023/06/09 00:38:15;;;;;;;8.48;7.68;;;;;;;;;;510025;28;1010;-77
2023/06/09 00:38:34;;;;;;;8.10;7.28;;;;;;;;;;508931;28;1468;-76
2023/06/09 00:38:50;;;;;;;8.30;7.50;;;;;;;;;;509427;28;1145;-76
2023/06/09 00:39:06;;;;;;;8.45;7.63;;;;;;;;;;507896;28;1306;-76
2023/06/09 00:39:23;;;;;;;8.88;7.53;;;;;;;;;;508329;28;1500;-76
2023/06/09 00:39:41;;;;;;;8.35;7.50;;;;;;;;;;508335;28;1347;-77
2023/06/09 00:39:57;;;;;;;8.32;7.53;;;;;;;;;;507277;28;1231;-75
2023/06/09 00:40:14;;;;;;;8.27;7.53;;;;;;;;;;509083;28;978;-76
2023/06/09 00:40:30;;;;;;;7.85;7.18;;;;;;;;;;508994;28;1288;-76
2023/06/09 00:40:55;;;;;;;;;;;;;;;;;;;;;
2023/06/09 00:41:11;;;;;;;8.23;7.53;;;;;;;;;;509988;28;993;-76
2023/06/09 00:41:27;;;;;;;8.33;7.63;;;;;;;;;;509220;28;1565;-76
2023/06/09 00:41:47;;;;;;;8.70;7.90;;;;;;;;;;510846;28;978;-77
2023/06/09 00:42:03;;;;;;;8.90;8.00;;;;;;;;;;510603;28;1239;-76
2023/06/09 00:42:19;;;;;;;9.02;8.13;;;;;;;;;;508265;28;1484;-76
2023/06/09 00:42:34;;;;;;;9.20;8.30;;;;;;;;;;509600;28;1058;-76
2023/06/09 00:42:51;;;;;;;9.20;8.20;;;;;;;;;;509359;28;1343;-76
2023/06/09 00:43:09;;;;;;;8.73;7.85;;;;;;;;;;511984;28;1427;-76
2023/06/09 00:43:25;;;;;;;8.75;7.85;;;;;;;;;;509724;28;1137;-76
2023/06/09 00:43:46;;;;;;;8.50;7.70;;;;;;;;;;511480;28;1632;-76
2023/06/09 00:44:04;;;;;;;8.63;7.72;;;;;;;;;;508970;28;1521;-76
2023/06/09 00:44:20;;;;;;;8.68;7.80;;;;;;;;;;509500;28;1492;-76
2023/06/09 00:44:39;;;;;;;8.60;7.70;;;;;;;;;;509181;28;1307;-77
2023/06/09 00:44:58;;;;;;;8.63;7.75;;;;;;;;;;509859;28;1088;-76
2023/06/09 00:45:16;;;;;;;8.77;8.02;;;;;;;;;;510398;28;1279;-76
2023/06/09 00:45:31;;;;;;;9.10;8.20;;;;;;;;;;509360;28;1382;-77
2023/06/09 00:45:47;;;;;;;8.88;7.97;;;;;;;;;;509542;28;923;-77
2023/06/09 00:46:07;;;;;;;8.43;7.63;;;;;;;;;;509525;28;1383;-76
2023/06/09 00:46:29;;;;;;;8.35;7.55;;;;;;;;;;507099;28;1324;-76
2023/06/09 00:46:44;;;;;;;8.63;7.80;;;;;;;;;;508004;28;1174;-77
2023/06/09 00:47:04;;;;;;;8.73;7.83;;;;;;;;;;506039;28;1378;-76
2023/06/09 00:47:23;;;;;;;8.60;7.55;;;;;;;;;;506902;28;1596;-76
2023/06/09 00:47:41;;;;;;;8.45;7.75;;;;;;;;;;506391;28;1473;-77
2023/06/09 00:47:57;;;;;;;8.70;7.90;;;;;;;;;;506406;28;1292;-76
2023/06/09 00:48:13;;;;;;;7.97;7.28;;;;;;;;;;506634;28;1454;-76
2023/06/09 00:48:28;;;;;;;7.93;7.22;;;;;;;;;;508875;28;1529;-76
2023/06/09 00:48:44;;;;;;;8.30;7.53;;;;;;;;;;508232;28;1451;-76
2023/06/09 00:49:00;;;;;;;8.10;7.40;;;;;;;;;;508335;28;1061;-76
2023/06/09 00:49:18;;;;;;;8.30;7.57;;;;;;;;;;508062;28;1153;-76
2023/06/09 00:49:37;;;;;;;8.30;7.50;;;;;;;;;;508811;28;1356;-76
2023/06/09 00:49:53;;;;;;;8.30;7.50;;;;;;;;;;507990;28;1312;-76
2023/06/09 00:50:11;;;;;;;8.27;7.47;;;;;;;;;;509854;28;1405;-76
2023/06/09 00:50:27;;;;;;;8.20;7.40;;;;;;;;;;510076;28;1452;-76
2023/06/09 00:50:45;;;;;;;8.25;7.35;;;;;;;;;;510380;28;1014;-76
2023/06/09 00:51:01;;;;;;;8.73;7.75;;;;;;;;;;508583;28;1389;-76
2023/06/09 00:51:19;;;;;;;8.48;7.68;;;;;;;;;;508469;28;1374;-76
2023/06/09 00:51:36;;;;;;;7.65;7.05;;;;;;;;;;508362;28;1483;-76
2023/06/09 00:51:52;;;;;;;7.72;7.03;;;;;;;;;;507398;28;1220;-76
2023/06/09 00:52:07;;;;;;;8.30;7.50;;;;;;;;;;505098;28;1329;-76
2023/06/09 00:52:27;;;;;;;8.60;7.80;;;;;;;;;;507091;28;1943;-76
2023/06/09 00:52:43;;;;;;;8.68;7.88;;;;;;;;;;507535;28;1463;-76
2023/06/09 00:53:09;;;;;;;8.57;7.78;;;;;;;;;;510013;28;1573;-76
2023/06/09 00:53:26;;;;;;;8.25;7.55;;;;;;;;;;511116;28;1442;-76
2023/06/09 00:53:42;;;;;;;8.32;7.60;;;;;;;;;;509119;28;1397;-77
2023/06/09 00:53:58;;;;;;;8.53;7.73;;;;;;;;;;506847;28;1371;-75
2023/06/09 00:54:19;;;;;;;8.70;7.90;;;;;;;;;;507170;28;1328;-76
2023/06/09 00:54:34;;;;;;;8.80;8.00;;;;;;;;;;509558;28;1371;-77
2023/06/09 00:54:55;;;;;;;8.70;7.90;;;;;;;;;;509320;28;1234;-76
2023/06/09 00:55:12;;;;;;;8.35;7.55;;;;;;;;;;506706;28;1150;-76
2023/06/09 00:55:28;;;;;;;8.50;7.60;;;;;;;;;;509294;28;1343;-76
2023/06/09 00:55:44;;;;;;;8.35;7.55;;;;;;;;;;508966;28;1490;-76
2023/06/09 00:56:00;;;;;;;8.40;7.70;;;;;;;;;;509853;28;1372;-76
2023/06/09 00:56:19;;;;;;;8.32;7.57;;;;;;;;;;506939;28;1228;-77
2023/06/09 00:56:38;;;;;;;8.68;7.85;;;;;;;;;;509859;28;1414;-76
2023/06/09 00:56:55;;;;;;;8.88;8.02;;;;;;;;;;507031;28;1454;-77
2023/06/09 00:57:12;;;;;;;8.57;7.78;;;;;;;;;;508932;28;1385;-76
2023/06/09 00:57:33;;;;;;;8.60;7.80;;;;;;;;;;509558;28;1326;-76
2023/06/09 00:57:55;;;;;;;8.60;7.80;;;;;;;;;;508300;28;1197;-76
2023/06/09 00:58:11;;;;;;;8.43;7.57;;;;;;;;;;508937;28;1338;-76
2023/06/09 00:58:30;;;;;;;8.70;7.75;;;;;;;;;;507261;28;1462;-76
2023/06/09 00:58:48;;;;;;;8.85;7.82;;;;;;;;;;506939;28;1315;-76
2023/06/09 00:59:10;;;;;;;8.63;7.72;;;;;;;;;;507766;28;1388;-76
2023/06/09 00:59:29;;;;;;;8.45;7.65;;;;;;;;;;508687;28;1355;-76
2023/06/09 00:59:49;;;;;;;8.77;7.90;;;;;;;;;;510187;28;1501;-75
2023/06/09 01:00:15;;;;;;;9.45;8.30;;;;;;;;;;509566;28;1448;-76
2023/06/09 01:00:40;;;;;;;8.70;7.90;;;;;;;;;;507393;28;1437;-77
2023/06/09 01:01:07;;;;;;;8.90;8.10;;;;;;;;;;506592;28;1529;-76
2023/06/09 01:01:34;;;;;;;8.63;7.72;;;;;;;;;;506264;28;1379;-76
2023/06/09 01:01:52;;;;;;;8.98;8.10;;;;;;;;;;507036;28;1521;-76
2023/06/09 01:02:12;;;;;;;9.38;8.10;;;;;;;;;;506432;28;1378;-76
2023/06/09 01:02:38;;;;;;;9.10;8.30;;;;;;;;;;506528;28;1497;-76
2023/06/09 01:03:00;;;;;;;9.35;8.40;;;;;;;;;;506030;28;1513;-76
2023/06/09 01:03:19;;;;;;;8.55;7.75;;;;;;;;;;508716;28;1133;-76
2023/06/09 01:03:38;;;;;;;8.23;7.40;;;;;;;;;;509761;28;1386;-76
2023/06/09 01:03:54;;;;;;;8.23;7.43;;;;;;;;;;508832;28;1313;-76
2023/06/09 01:04:10;;;;;;;7.93;7.28;;;;;;;;;;509475;28;1365;-76
2023/06/09 01:04:25;;;;;;;8.30;7.53;;;;;;;;;;506575;28;1308;-76
2023/06/09 01:04:49;;;;;;;8.57;7.57;;;;;;;;;;505737;28;1425;-76
2023/06/09 01:05:08;;;;;;;8.45;7.50;;;;;;;;;;508331;28;1534;-76
2023/06/09 01:05:36;;;;;;;8.52;7.63;;;;;;;;;;506290;28;1352;-76
2023/06/09 01:06:04;;;;;;;8.60;7.80;;;;;;;;;;506166;28;1449;-76
2023/06/09 01:06:30;;;;;;;8.30;7.50;;;;;;;;;;508954;28;1297;-76
2023/06/09 01:07:20;;;;;;;9.60;8.48;;;;;;;;;;506581;28;1685;-76
2023/06/09 01:07:54;;;;;;;9.18;8.32;;;;;;;;;;506620;28;1245;-76
2023/06/09 01:08:25;;;;;;;8.83;8.03;;;;;;;;;;510055;28;1669;-76
2023/06/09 01:08:50;;;;;;;8.43;7.65;;;;;;;;;;509789;28;1344;-76
2023/06/09 01:09:30;;;;;;;8.68;7.80;;;;;;;;;;511298;28;1132;-76
2023/06/09 01:09:58;;;;;;;8.93;8.13;;;;;;;;;;509277;28;1392;-75
2023/06/09 01:10:22;;;;;;;8.70;7.90;;;;;;;;;;509088;28;1349;-76
2023/06/09 01:10:48;;;;;;;9.00;8.20;;;;;;;;;;509788;28;1327;-76
2023/06/09 01:11:35;;;;;;;8.57;7.78;;;;;;;;;;508974;28;1125;-76
2023/06/09 01:12:14;;;;;;;8.75;7.88;;;;;;;;;;506804;28;1358;-75
2023/06/09 01:12:59;;;;;;;9.07;8.18;;;;;;;;;;509981;28;1946;-75
2023/06/09 01:13:17;;;;;;;9.13;8.18;;;;;;;;;;511386;28;1334;-75
2023/06/09 01:13:48;;;;;;;9.32;8.40;;;;;;;;;;511551;28;1508;-75
2023/06/09 01:14:10;;;;;;;9.20;8.40;;;;;;;;;;510874;28;1799;-75
2023/06/09 01:14:52;;;;;;;9.10;8.20;;;;;;;;;;511699;28;1170;-75
2023/06/09 01:15:29;;;;;;;9.48;8.57;;;;;;;;;;504711;28;1281;-75
2023/06/09 01:15:50;;;;;;;9.13;8.33;;;;;;;;;;505708;28;1362;-75
2023/06/09 01:16:32;;;;;;;9.65;8.75;;;;;;;;;;508226;28;1541;-75
2023/06/09 01:17:23;;;;;;;9.90;8.90;;;;;;;;;;511959;28;1402;-76
2023/06/09 01:17:55;;;;;;;9.80;8.80;;;;;;;;;;508454;28;1539;-75
2023/06/09 01:18:14;;;;;;;10.15;8.88;;;;;;;;;;510504;28;1074;-75
2023/06/09 01:18:32;;;;;;;10.10;9.10;;;;;;;;;;508462;28;1482;-75
2023/06/09 01:18:49;;;;;;;10.20;9.10;;;;;;;;;;510757;28;1441;-76
2023/06/09 01:19:11;;;;;;;10.15;9.10;;;;;;;;;;510195;28;1485;-75
2023/06/09 01:19:36;;;;;;;10.27;9.27;;;;;;;;;;510854;28;1358;-76
2023/06/09 01:19:57;;;;;;;10.57;9.63;;;;;;;;;;508368;28;1344;-75
2023/06/09 01:20:26;;;;;;;10.35;9.40;;;;;;;;;;506262;28;1214;-75
2023/06/09 01:20:53;;;;;;;10.05;9.10;;;;;;;;;;503984;28;1454;-75
2023/06/09 01:21:40;;;;;;;10.98;9.52;;;;;;;;;;504519;28;942;-76
2023/06/09 01:21:59;;;;;;;10.20;9.25;;;;;;;;;;504778;28;1546;-75
2023/06/09 01:22:47;;;;;;;10.70;9.70;;;;;;;;;;506922;28;987;-76
2023/06/09 01:23:16;;;;;;;10.45;9.30;;;;;;;;;;506832;28;1509;-75
2023/06/09 01:23:48;;;;;;;10.65;9.60;;;;;;;;;;508673;28;1024;-75
2023/06/09 01:24:33;;;;;;;10.13;9.23;;;;;;;;;;507568;28;1219;-75
2023/06/09 01:24:55;;;;;;;10.80;9.80;;;;;;;;;;510012;28;973;-74
2023/06/09 01:25:35;;;;;;;10.38;9.38;;;;;;;;;;510118;28;1326;-75
2023/06/09 01:25:57;;;;;;;9.93;9.05;;;;;;;;;;512713;28;1133;-76
2023/06/09 01:26:15;;;;;;;9.80;8.90;;;;;;;;;;511578;28;1341;-74
2023/06/09 01:26:31;;;;;;;9.27;8.45;;;;;;;;;;510562;28;1477;-75
2023/06/09 01:26:54;;;;;;;9.52;8.63;;;;;;;;;;511055;28;1209;-76
2023/06/09 01:27:10;;;;;;;9.70;8.77;;;;;;;;;;510276;28;1270;-75
2023/06/09 01:27:44;;;;;;;9.40;8.60;;;;;;;;;;507807;28;1411;-74
2023/06/09 01:28:20;;;;;;;9.77;8.77;;;;;;;;;;507479;28;1302;-75
2023/06/09 01:28:38;;;;;;;9.43;8.52;;;;;;;;;;507954;28;1771;-74
2023/06/09 01:28:58;;;;;;;9.20;8.30;;;;;;;;;;508845;28;1355;-74
2023/06/09 01:29:15;;;;;;;9.55;8.55;;;;;;;;;;507786;28;1334;-75
2023/06/09 01:29:40;;;;;;;9.52;8.48;;;;;;;;;;510061;28;1515;-74
2023/06/09 01:30:02;;;;;;;9.98;9.02;;;;;;;;;;507869;28;1395;-75
2023/06/09 01:30:32;;;;;;;9.93;8.93;;;;;;;;;;507253;28;1353;-75
2023/06/09 01:30:52;;;;;;;9.63;8.80;;;;;;;;;;505669;28;1332;-75
2023/06/09 01:31:17;;;;;;;9.68;8.88;;;;;;;;;;505086;28;1471;-74
2023/06/09 01:31:33;;;;;;;10.18;9.18;;;;;;;;;;507645;28;1292;-74
2023/06/09 01:32:10;;;;;;;10.25;9.20;;;;;;;;;;508832;28;1413;-74
2023/06/09 01:32:30;;;;;;;9.45;8.45;;;;;;;;;;507665;28;1925;-74
2023/06/09 01:33:02;;;;;;;9.68;8.70;;;;;;;;;;509785;28;1448;-75
2023/06/09 01:33:25;;;;;;;9.88;8.68;;;;;;;;;;508305;28;1154;-75
2023/06/09 01:33:47;;;;;;;9.95;8.80;;;;;;;;;;508793;28;1507;-75
2023/06/09 01:34:06;;;;;;;10.63;9.00;;;;;;;;;;508816;28;1074;-76
2023/06/09 01:34:23;;;;;;;9.90;8.90;;;;;;;;;;507240;28;1438;-76
2023/06/09 01:34:39;;;;;;;9.43;8.52;;;;;;;;;;507593;28;1286;-78
2023/06/09 01:34:57;;;;;;;9.20;8.38;;;;;;;;;;508336;28;1463;-75
2023/06/09 01:35:16;;;;;;;9.35;8.55;;;;;;;;;;508359;28;1130;-76
2023/06/09 01:35:55;;;;;;;9.90;9.00;;;;;;;;;;507418;28;995;-75
2023/06/09 01:36:15;;;;;;;10.68;9.50;;;;;;;;;;508321;28;1201;-75
2023/06/09 01:36:32;;;;;;;11.07;9.13;;;;;;;;;;508149;28;1419;-75
2023/06/09 01:36:53;;;;;;;10.85;8.90;;;;;;;;;;507944;28;1346;-75
2023/06/09 01:37:21;;;;;;;10.38;9.10;;;;;;;;;;507101;28;1295;-75
2023/06/09 01:37:43;;;;;;;9.80;8.90;;;;;;;;;;505760;28;1343;-75
2023/06/09 01:38:08;;;;;;;9.70;8.80;;;;;;;;;;506257;28;1485;-76
2023/06/09 01:38:29;;;;;;;10.25;9.15;;;;;;;;;;507239;28;1339;-75
2023/06/09 01:38:48;;;;;;;10.45;9.40;;;;;;;;;;509385;28;1221;-75
2023/06/09 01:39:10;;;;;;;10.07;9.13;;;;;;;;;;510723;28;1070;-75
2023/06/09 01:39:26;;;;;;;10.20;9.20;;;;;;;;;;510079;28;1335;-76
2023/06/09 01:40:22;;;;;;;10.18;9.27;;;;;;;;;;504229;28;1090;-76
2023/06/09 01:40:25;;;;;;;10.50;9.50;;;;;;;;;;509361;28;1381;-75
2023/06/09 01:40:38;;;;;;;10.70;9.70;;;;;;;;;;507114;28;1964;-76
2023/06/09 01:40:57;;;;;;;10.35;9.25;;;;;;;;;;506856;28;1319;-75
2023/06/09 01:41:16;;;;;;;10.55;9.30;;;;;;;;;;506723;28;1267;-76
2023/06/09 01:41:31;;;;;;;10.65;9.20;;;;;;;;;;505489;28;1222;-75
2023/06/09 01:41:55;;;;;;;10.07;9.07;;;;;;;;;;505847;28;976;-76
2023/06/09 01:42:11;;;;;;;10.77;9.02;;;;;;;;;;505619;28;1562;-76
2023/06/09 01:42:32;;;;;;;10.88;9.18;;;;;;;;;;505993;28;945;-76
2023/06/09 01:42:48;;;;;;;10.20;9.10;;;;;;;;;;509128;28;1011;-75
2023/06/09 01:43:06;;;;;;;10.05;9.05;;;;;;;;;;508434;28;1164;-76
2023/06/09 01:43:22;;;;;;;10.13;9.13;;;;;;;;;;508438;28;1401;-75
2023/06/09 01:43:40;;;;;;;10.75;9.65;;;;;;;;;;508839;28;1212;-75
2023/06/09 01:43:59;;;;;;;10.55;9.50;;;;;;;;;;508437;28;1386;-75
2023/06/09 01:44:40;;;;;;;10.30;9.30;;;;;;;;;;508367;28;974;-75
2023/06/09 01:44:58;;;;;;;9.88;8.98;;;;;;;;;;509811;28;1493;-75
2023/06/09 01:45:19;;;;;;;10.45;9.43;;;;;;;;;;512044;28;1180;-76
2023/06/09 01:45:35;;;;;;;11.32;9.48;;;;;;;;;;510695;28;1540;-76
2023/06/09 01:45:51;;;;;;;11.20;9.30;;;;;;;;;;510146;28;1149;-75
2023/06/09 01:46:13;;;;;;;10.32;9.25;;;;;;;;;;510050;28;1042;-75
2023/06/09 01:46:29;;;;;;;11.02;9.48;;;;;;;;;;508202;28;1447;-75
2023/06/09 01:46:45;;;;;;;11.57;9.70;;;;;;;;;;508633;28;1381;-75
2023/06/09 01:47:07;;;;;;;11.00;9.80;;;;;;;;;;508067;28;1397;-76
2023/06/09 01:48:35;;;;;;;10.27;9.25;;;;;;;;;;509871;28;1145;-76
2023/06/09 01:49:10;;;;;;;10.18;9.18;;;;;;;;;;510539;28;1468;-75
2023/06/09 01:49:48;;;;;;;10.68;9.57;;;;;;;;;;511938;28;981;-75
2023/06/09 01:50:14;;;;;;;10.23;9.30;;;;;;;;;;511161;28;1491;-75
2023/06/09 01:50:56;;;;;;;10.77;9.30;;;;;;;;;;510259;28;1325;-75
2023/06/09 01:51:21;;;;;;;10.13;9.15;;;;;;;;;;510463;28;1451;-76
2023/06/09 01:51:54;;;;;;;10.77;9.77;;;;;;;;;;509414;28;1336;-76
2023/06/09 01:52:23;;;;;;;10.52;9.52;;;;;;;;;;509177;28;1146;-75
2023/06/09 01:52:45;;;;;;;10.23;9.23;;;;;;;;;;509750;28;1991;-75
2023/06/09 01:53:26;;;;;;;10.63;9.07;;;;;;;;;;509802;28;1311;-76
2023/06/09 01:53:53;;;;;;;10.93;9.85;;;;;;;;;;505963;28;1494;-75
2023/06/09 01:54:41;;;;;;;10.75;9.43;;;;;;;;;;508998;28;1528;-75
2023/06/09 01:55:07;;;;;;;10.75;9.65;;;;;;;;;;505402;28;1437;-75
2023/06/09 01:55:44;;;;;;;10.90;9.80;;;;;;;;;;508222;28;1456;-76
2023/06/09 01:56:12;;;;;;;10.85;9.82;;;;;;;;;;510903;28;1078;-76
2023/06/09 01:57:02;;;;;;;11.05;9.95;;;;;;;;;;512136;28;1139;-74
2023/06/09 01:57:24;;;;;;;10.65;9.70;;;;;;;;;;514098;28;1113;-76
2023/06/09 01:58:07;;;;;;;11.10;10.05;;;;;;;;;;511464;28;1478;-75
2023/06/09 01:58:32;;;;;;;11.15;10.02;;;;;;;;;;512095;28;1128;-76
2023/06/09 01:58:53;;;;;;;10.45;9.48;;;;;;;;;;510470;28;1374;-75
2023/06/09 01:59:14;;;;;;;10.82;9.77;;;;;;;;;;509609;28;1542;-75
2023/06/09 01:59:44;;;;;;;10.90;9.80;;;;;;;;;;509544;28;1424;-76
2023/06/09 02:00:03;;;;;;;10.35;9.35;;;;;;;;;;510040;28;1568;-75
2023/06/09 02:00:23;;;;;;;10.50;9.50;;;;;;;;;;509348;28;1398;-76
2023/06/09 02:00:45;;;;;;;10.07;9.18;;;;;;;;;;507332;28;1314;-75
2023/06/09 02:01:02;;;;;;;9.55;8.65;;;;;;;;;;506541;28;1387;-75
2023/06/09 02:01:20;;;;;;;9.20;8.40;;;;;;;;;;506962;28;1375;-75
2023/06/09 02:01:38;;;;;;;9.32;8.52;;;;;;;;;;507813;28;1451;-75
2023/06/09 02:01:56;;;;;;;9.93;8.93;;;;;;;;;;507239;28;1358;-76
2023/06/09 02:02:16;;;;;;;9.80;8.85;;;;;;;;;;507070;28;1188;-75
2023/06/09 02:02:37;;;;;;;9.45;8.65;;;;;;;;;;507339;28;1470;-75
2023/06/09 02:03:15;;;;;;;10.13;9.23;;;;;;;;;;508883;28;1037;-75
2023/06/09 02:03:55;;;;;;;10.45;9.43;;;;;;;;;;509986;28;1041;-75
2023/06/09 02:04:14;;;;;;;9.85;8.88;;;;;;;;;;508734;28;1301;-76
2023/06/09 02:04:41;;;;;;;10.10;9.10;;;;;;;;;;507907;28;1315;-75
2023/06/09 02:05:03;;;;;;;10.65;9.55;;;;;;;;;;509984;28;1442;-75
2023/06/09 02:05:22;;;;;;;10.98;9.68;;;;;;;;;;510859;28;998;-76
2023/06/09 02:05:45;;;;;;;10.52;9.52;;;;;;;;;;511341;28;1176;-76
2023/06/09 02:06:02;;;;;;;10.65;9.63;;;;;;;;;;508908;28;1389;-75
2023/06/09 02:06:21;;;;;;;10.20;9.20;;;;;;;;;;505832;28;1450;-78
2023/06/09 02:06:40;;;;;;;10.00;9.00;;;;;;;;;;506678;28;1298;-76
2023/06/09 02:06:56;;;;;;;9.88;9.00;;;;;;;;;;505863;28;1527;-75
2023/06/09 02:07:16;;;;;;;10.20;9.10;;;;;;;;;;507391;28;1378;-75
2023/06/09 02:07:35;;;;;;;10.27;9.30;;;;;;;;;;507773;28;1188;-75
2023/06/09 02:07:53;;;;;;;9.93;9.07;;;;;;;;;;508306;28;1284;-76
2023/06/09 02:08:09;;;;;;;9.80;8.93;;;;;;;;;;511280;28;1014;-75
2023/06/09 02:08:30;;;;;;;9.68;8.77;;;;;;;;;;508726;28;1197;-75
2023/06/09 02:08:49;;;;;;;9.38;8.50;;;;;;;;;;508178;28;1370;-77
2023/06/09 02:09:11;;;;;;;9.90;9.00;;;;;;;;;;505903;28;1520;-76
2023/06/09 02:09:33;;;;;;;9.70;8.80;;;;;;;;;;503725;28;1443;-75
2023/06/09 02:09:50;;;;;;;9.98;8.98;;;;;;;;;;504212;28;1417;-75
2023/06/09 02:10:07;;;;;;;10.80;9.07;;;;;;;;;;502471;28;1645;-75
2023/06/09 02:10:22;;;;;;;10.05;9.07;;;;;;;;;;504026;28;1220;-75
2023/06/09 02:10:40;;;;;;;10.18;9.18;;;;;;;;;;503376;28;1369;-75
2023/06/09 02:10:56;;;;;;;10.40;9.15;;;;;;;;;;504047;28;1246;-75